Time;durP1;ratioP1;P1;durP2;ratioP2;P2;SDS_P1;SDS_P2;PMS_P1;PMS_P2;Temp;Humidity;BMP_temperature;BMP_pressure;BME280_temperature;BME280_humidity;BME280_pressure;Samples;Min_cycle;Max_cycle;Signal;HPM_P1;HPM_P2
2023/04/27 00:01:58;;;;;;;8.60;6.37;;;;;;;9.76;79.43;98189.16;4172430;28;21223;-82
2023/04/27 00:04:03;;;;;;;8.13;5.67;;;;;;;9.70;79.52;98194.78;4168224;28;21321;-81
2023/04/27 00:06:07;;;;;;;9.20;6.40;;;;;;;9.66;79.63;98190.69;4167184;28;20651;-82
2023/04/27 00:08:11;;;;;;;7.80;5.80;;;;;;;9.63;80.15;98190.88;4160871;28;21243;-81
2023/04/27 00:10:14;;;;;;;6.93;5.90;;;;;;;9.60;79.93;98191.06;4166891;28;20674;-81
2023/04/27 00:12:19;;;;;;;7.13;5.60;;;;;;;9.53;80.99;98184.56;4169934;28;21094;-82
2023/04/27 00:14:22;;;;;;;8.98;5.60;;;;;;;9.49;80.60;98188.31;4167366;28;20716;-82
2023/04/27 00:16:26;;;;;;;8.83;5.77;;;;;;;9.44;79.84;98180.78;4163756;28;20231;-81
2023/04/27 00:18:29;;;;;;;8.27;5.80;;;;;;;9.40;80.15;98178.47;4168611;28;20732;-82
2023/04/27 00:20:32;;;;;;;8.77;5.90;;;;;;;9.38;80.05;98175.97;4166361;28;20714;-81
2023/04/27 00:22:36;;;;;;;5.60;5.10;;;;;;;9.37;80.02;98170.84;4162648;28;20664;-81
2023/04/27 00:24:40;;;;;;;6.10;5.47;;;;;;;9.35;79.76;98177.94;4165528;28;20655;-82
2023/04/27 00:26:43;;;;;;;8.30;5.30;;;;;;;9.31;79.95;98176.44;4169236;28;20623;-82
2023/04/27 00:28:48;;;;;;;6.73;5.47;;;;;;;9.25;80.05;98184.63;4158090;28;20688;-82
2023/04/27 00:30:53;;;;;;;7.90;5.40;;;;;;;9.22;80.17;98178.78;4167818;28;20649;-82
2023/04/27 00:32:56;;;;;;;8.63;5.90;;;;;;;9.16;80.73;98172.16;4154243;28;21229;-81
2023/04/27 00:34:59;;;;;;;10.30;5.93;;;;;;;9.14;80.36;98174.03;4172124;28;21253;-82
2023/04/27 00:37:04;;;;;;;12.33;6.93;;;;;;;9.11;81.21;98174.22;4147598;28;20641;-81
2023/04/27 00:39:07;;;;;;;6.20;5.60;;;;;;;9.09;80.07;98170.03;4162744;28;20733;-81
2023/04/27 00:41:11;;;;;;;6.00;5.40;;;;;;;9.04;81.12;98170.31;4145679;28;20649;-81
2023/04/27 00:43:14;;;;;;;6.70;5.70;;;;;;;9.01;81.34;98167.09;4158195;28;20633;-81
2023/04/27 00:45:19;;;;;;;8.53;4.90;;;;;;;8.96;81.01;98166.53;4165833;28;20633;-82
2023/04/27 00:47:22;;;;;;;7.90;5.17;;;;;;;8.90;80.25;98166.03;4157653;28;20654;-81
2023/04/27 00:49:26;;;;;;;6.73;5.57;;;;;;;8.84;81.19;98161.22;4169175;28;20637;-82
2023/04/27 00:51:30;;;;;;;6.80;5.50;;;;;;;8.81;80.60;98164.84;4160234;28;20654;-81
2023/04/27 00:53:34;;;;;;;6.00;4.97;;;;;;;8.77;81.34;98160.75;4170850;28;20668;-82
2023/04/27 00:55:37;;;;;;;6.50;5.20;;;;;;;8.73;80.71;98155.84;4171629;28;20659;-82
2023/04/27 00:57:40;;;;;;;8.00;5.53;;;;;;;8.71;81.57;98165.50;4167781;28;21266;-82
2023/04/27 00:59:43;;;;;;;6.17;5.27;;;;;;;8.67;80.04;98158.78;4174634;28;21254;-82
2023/04/27 01:01:49;;;;;;;8.50;5.30;;;;;;;8.65;81.06;98155.47;4169082;28;20613;-81
2023/04/27 01:03:54;;;;;;;6.20;5.60;;;;;;;8.67;80.68;98158.78;4166132;28;20199;-81
2023/04/27 01:06:02;;;;;;;6.80;5.03;;;;;;;8.64;80.28;98169.38;4171003;28;20677;-81
2023/04/27 01:08:06;;;;;;;9.63;4.80;;;;;;;8.59;82.11;98163.63;4171744;28;20635;-81
2023/04/27 01:10:10;;;;;;;5.90;5.30;;;;;;;8.57;80.69;98170.69;4162104;28;21223;-81
2023/04/27 01:12:13;;;;;;;5.90;4.77;;;;;;;8.53;80.69;98166.59;4162490;28;20699;-81
2023/04/27 01:14:17;;;;;;;7.00;4.93;;;;;;;8.47;81.90;98162.56;4170536;28;20699;-81
2023/04/27 01:16:20;;;;;;;6.50;5.17;;;;;;;8.43;81.10;98170.63;4167805;28;20629;-81
2023/04/27 01:18:25;;;;;;;7.93;4.55;;;;;;;8.39;81.17;98165.72;4163001;28;20645;-82
2023/04/27 01:20:29;;;;;;;6.10;4.55;;;;;;;8.35;82.27;98169.44;4168375;28;20252;-82
2023/04/27 01:22:32;;;;;;;5.57;4.85;;;;;;;8.33;81.00;98169.53;4154820;28;20209;-81
2023/04/27 01:24:36;;;;;;;6.53;5.20;;;;;;;8.28;82.03;98160.31;4170375;28;20213;-81
2023/04/27 01:26:40;;;;;;;6.57;4.20;;;;;;;8.26;81.14;98168.19;4153047;28;20641;-81
2023/04/27 01:28:45;;;;;;;7.10;5.20;;;;;;;8.26;81.64;98164.75;4153929;28;20649;-81
2023/04/27 01:30:48;;;;;;;6.27;4.40;;;;;;;8.25;82.54;98170.88;4173717;28;20637;-81
2023/04/27 01:32:52;;;;;;;7.78;4.50;;;;;;;8.21;81.61;98169.38;4171494;28;20711;-81
2023/04/27 01:34:55;;;;;;;6.32;5.00;;;;;;;8.18;83.14;98165.22;4178947;28;20207;-81
2023/04/27 01:37:01;;;;;;;8.77;4.78;;;;;;;8.19;81.64;98160.84;4150753;28;20204;-81
2023/04/27 01:39:07;;;;;;;5.80;4.68;;;;;;;8.15;81.75;98164.56;4157183;28;20203;-81
2023/04/27 01:41:12;;;;;;;9.23;4.93;;;;;;;8.17;81.50;98160.94;4164639;28;20199;-81
2023/04/27 01:43:16;;;;;;;5.30;4.30;;;;;;;8.17;81.13;98160.94;4155145;28;20210;-81
2023/04/27 01:45:20;;;;;;;7.10;5.10;;;;;;;8.15;82.74;98159.38;4177800;28;20631;-81
2023/04/27 01:47:23;;;;;;;5.93;4.73;;;;;;;8.12;82.66;98154.34;4162596;28;20815;-81
2023/04/27 01:49:26;;;;;;;8.68;5.05;;;;;;;8.12;83.08;98159.53;4165020;28;20635;-81
2023/04/27 01:51:31;;;;;;;5.88;4.53;;;;;;;8.12;82.62;98165.56;4166975;28;20589;-81
2023/04/27 01:53:34;;;;;;;5.07;4.53;;;;;;;8.06;83.03;98163.28;4150144;28;20234;-81
2023/04/27 01:55:38;;;;;;;5.40;4.90;;;;;;;8.03;82.59;98166.06;4166101;28;20261;-81
2023/04/27 01:57:43;;;;;;;5.60;4.67;;;;;;;7.99;82.49;98156.75;4173980;28;20632;-81
2023/04/27 01:59:46;;;;;;;7.87;4.90;;;;;;;8.00;83.57;98161.03;4169684;28;20643;-81
2023/04/27 02:01:50;;;;;;;7.30;4.95;;;;;;;8.02;83.65;98169.56;4170402;28;21193;-81
2023/04/27 02:03:55;;;;;;;5.22;4.70;;;;;;;8.01;83.66;98173.09;4175809;28;20209;-81
2023/04/27 02:05:58;;;;;;;5.37;4.80;;;;;;;8.00;83.91;98171.41;4158011;28;20218;-81
2023/04/27 02:08:02;;;;;;;5.80;5.13;;;;;;;7.97;83.31;98176.78;4171712;28;20633;-81
2023/04/27 02:10:06;;;;;;;7.32;4.82;;;;;;;7.98;82.63;98173.28;4171955;28;20643;-82
2023/04/27 02:12:10;;;;;;;8.07;4.80;;;;;;;7.96;83.61;98179.47;4165502;28;20226;-81
2023/04/27 02:14:14;;;;;;;6.23;4.73;;;;;;;7.92;82.74;98177.97;4176645;28;20690;-81
2023/04/27 02:16:18;;;;;;;7.37;5.10;;;;;;;7.92;83.51;98177.97;4170745;28;20767;-81
2023/04/27 02:18:21;;;;;;;10.15;5.20;;;;;;;7.92;83.75;98175.38;4155206;28;20660;-81
2023/04/27 02:20:24;;;;;;;6.97;5.40;;;;;;;7.92;83.90;98179.72;4159061;28;20238;-82
2023/04/27 02:22:28;;;;;;;6.70;4.93;;;;;;;7.94;84.03;98181.31;4170946;28;20720;-81
2023/04/27 02:24:31;;;;;;;6.25;5.07;;;;;;;7.96;82.63;98178.66;4185654;28;20719;-82
2023/04/27 02:26:36;;;;;;;6.20;5.50;;;;;;;7.98;83.71;98190.59;4159082;28;20313;-81
2023/04/27 02:28:39;;;;;;;7.33;4.90;;;;;;;7.96;83.86;98186.44;4157228;28;20242;-81
2023/04/27 02:30:45;;;;;;;7.80;5.20;;;;;;;7.95;83.99;98180.38;4172305;28;20710;-81
2023/04/27 02:32:48;;;;;;;6.03;5.25;;;;;;;7.96;83.44;98183.84;4171794;28;20684;-81
2023/04/27 02:34:51;;;;;;;6.40;4.90;;;;;;;7.97;83.14;98187.16;4171641;28;20210;-81
2023/04/27 02:36:55;;;;;;;7.40;4.93;;;;;;;7.96;82.84;98188.09;4168975;28;20627;-81
2023/04/27 02:38:58;;;;;;;6.90;4.97;;;;;;;7.96;82.28;98195.88;4169436;28;21086;-81
2023/04/27 02:41:01;;;;;;;6.63;5.25;;;;;;;7.99;82.29;98194.88;4172576;28;20633;-81
2023/04/27 02:43:04;;;;;;;7.40;5.00;;;;;;;7.98;83.45;98201.84;4170195;28;20226;-81
2023/04/27 02:45:08;;;;;;;8.20;5.00;;;;;;;7.99;84.25;98206.09;4171245;28;20728;-81
2023/04/27 02:47:13;;;;;;;8.15;5.68;;;;;;;8.01;83.53;98193.88;4171805;28;20635;-81
2023/04/27 02:49:17;;;;;;;8.00;5.50;;;;;;;8.02;83.43;98200.72;4166522;28;20286;-82
2023/04/27 02:51:20;;;;;;;5.88;5.05;;;;;;;8.04;82.94;98198.03;4170436;28;20237;-81
2023/04/27 02:53:24;;;;;;;8.03;5.70;;;;;;;8.01;83.79;98195.63;4177093;28;20686;-81
2023/04/27 02:55:28;;;;;;;7.20;5.15;;;;;;;7.99;82.95;98205.25;4173999;28;20687;-81
2023/04/27 02:57:32;;;;;;;6.88;6.13;;;;;;;8.01;82.89;98208.59;4169824;28;20206;-81
2023/04/27 02:59:35;;;;;;;5.45;4.95;;;;;;;8.00;83.60;98204.34;4161220;28;20207;-81
2023/04/27 03:01:38;;;;;;;5.68;5.07;;;;;;;7.99;83.34;98208.69;4170726;28;20709;-81
2023/04/27 03:03:45;;;;;;;5.90;4.93;;;;;;;7.99;83.33;98206.09;4155142;28;20211;-81
2023/04/27 03:05:48;;;;;;;8.82;5.60;;;;;;;7.98;83.65;98203.56;4155524;28;20226;-81
2023/04/27 03:07:51;;;;;;;7.68;5.68;;;;;;;8.01;83.14;98206.84;4157087;28;20344;-81
2023/04/27 03:09:54;;;;;;;7.18;5.40;;;;;;;8.04;82.81;98196.31;4172567;28;20194;-81
2023/04/27 03:11:57;;;;;;;8.20;5.63;;;;;;;8.04;84.25;98198.91;4157447;28;20207;-81
2023/04/27 03:14:03;;;;;;;7.85;6.25;;;;;;;8.05;83.35;98207.50;4169149;28;20225;-81
2023/04/27 03:16:08;;;;;;;9.05;5.95;;;;;;;8.08;82.42;98207.34;4167959;28;20207;-81
2023/04/27 03:18:11;;;;;;;7.28;6.18;;;;;;;8.01;81.51;98209.47;4166947;28;20234;-81
2023/04/27 03:20:17;;;;;;;7.55;6.07;;;;;;;8.01;81.91;98213.78;4173267;28;20704;-81
2023/04/27 03:22:21;;;;;;;8.98;6.30;;;;;;;8.01;83.63;98198.22;4154758;28;20880;-81
2023/04/27 03:24:25;;;;;;;10.53;5.80;;;;;;;8.00;83.10;98207.78;4155144;28;20203;-81
2023/04/27 03:26:28;;;;;;;7.30;6.22;;;;;;;7.99;81.67;98208.69;4166985;28;21138;-81
2023/04/27 03:28:32;;;;;;;8.52;5.90;;;;;;;7.98;82.78;98209.63;4171653;28;20222;-81
2023/04/27 03:30:35;;;;;;;7.20;6.25;;;;;;;7.98;83.16;98211.38;4172149;28;20214;-81
2023/04/27 03:32:38;;;;;;;10.23;6.63;;;;;;;7.99;83.66;98215.66;4158746;28;20238;-81
2023/04/27 03:34:42;;;;;;;10.27;6.47;;;;;;;8.00;84.20;98215.56;4168377;28;20220;-81
2023/04/27 03:36:46;;;;;;;6.77;6.07;;;;;;;8.00;84.38;98212.13;4172333;28;20978;-81
2023/04/27 03:38:49;;;;;;;9.93;6.47;;;;;;;7.98;84.83;98214.81;4169724;28;20655;-81
2023/04/27 03:40:53;;;;;;;9.03;7.10;;;;;;;7.99;83.80;98211.28;4179677;28;20741;-81
2023/04/27 03:42:56;;;;;;;7.93;6.75;;;;;;;7.99;83.46;98202.66;4171071;28;20630;-82
2023/04/27 03:45:01;;;;;;;10.33;7.00;;;;;;;8.02;83.01;98199.91;4171448;28;20210;-81
2023/04/27 03:47:07;;;;;;;7.73;6.50;;;;;;;8.01;83.52;98203.41;4171467;28;20678;-83
2023/04/27 03:49:13;;;;;;;10.33;6.30;;;;;;;8.02;84.04;98200.72;4155779;28;20656;-83
2023/04/27 03:51:17;;;;;;;10.52;6.57;;;;;;;8.00;83.47;98202.56;4168109;28;20997;-83
2023/04/27 03:53:23;;;;;;;9.70;6.93;;;;;;;8.03;83.43;98197.22;4153907;28;20758;-83
2023/04/27 03:55:26;;;;;;;6.82;6.07;;;;;;;8.05;83.51;98202.31;4146944;28;20212;-83
2023/04/27 03:57:30;;;;;;;6.97;6.30;;;;;;;8.07;84.49;98205.66;4170398;28;20222;-83
2023/04/27 03:59:33;;;;;;;9.67;6.80;;;;;;;8.05;83.15;98203.16;4186056;28;20209;-83
2023/04/27 04:01:38;;;;;;;8.40;6.80;;;;;;;8.08;83.39;98217.72;4178046;28;20826;-83
2023/04/27 04:03:42;;;;;;;7.87;6.57;;;;;;;8.10;84.08;98208.09;4169384;28;20640;-83
2023/04/27 04:05:46;;;;;;;9.80;6.90;;;;;;;8.11;83.51;98215.81;4169600;28;20706;-83
2023/04/27 04:07:49;;;;;;;9.15;6.55;;;;;;;8.12;84.28;98227.91;4151181;28;21058;-83
2023/04/27 04:09:55;;;;;;;10.23;7.47;;;;;;;8.13;84.19;98214.00;4173091;28;20231;-83
2023/04/27 04:11:58;;;;;;;9.00;6.90;;;;;;;8.13;84.04;98218.34;4150160;28;20246;-83
2023/04/27 04:14:01;;;;;;;9.73;7.20;;;;;;;8.13;83.22;98223.53;4145553;28;20289;-83
2023/04/27 04:16:06;;;;;;;9.70;7.37;;;;;;;8.11;83.57;98214.97;4168067;28;20640;-83
2023/04/27 04:18:09;;;;;;;11.32;7.65;;;;;;;8.11;84.34;98210.63;4165065;28;20633;-83
2023/04/27 04:20:13;;;;;;;10.83;6.90;;;;;;;8.13;83.70;98219.19;4172417;28;20308;-83
2023/04/27 04:22:16;;;;;;;11.67;8.53;;;;;;;8.13;83.40;98219.19;4174231;28;20640;-83
2023/04/27 04:24:20;;;;;;;10.90;8.00;;;;;;;8.11;84.08;98221.00;4171762;28;20629;-83
2023/04/27 04:26:26;;;;;;;10.37;7.50;;;;;;;8.11;83.22;98222.75;4156833;28;20628;-83
2023/04/27 04:28:29;;;;;;;7.97;7.17;;;;;;;8.11;83.89;98231.41;4165939;28;20666;-83
2023/04/27 04:30:32;;;;;;;11.43;8.27;;;;;;;8.13;84.87;98219.19;4157923;28;20689;-83
2023/04/27 04:32:37;;;;;;;8.95;7.55;;;;;;;8.16;84.90;98229.41;4176867;28;20237;-83
2023/04/27 04:34:41;;;;;;;9.25;6.95;;;;;;;8.18;83.48;98227.53;4163439;28;20239;-83
2023/04/27 04:36:44;;;;;;;9.63;7.20;;;;;;;8.16;84.30;98228.53;4170378;28;20215;-83
2023/04/27 04:38:47;;;;;;;8.50;7.17;;;;;;;8.17;85.06;98232.81;4172149;28;21193;-83
2023/04/27 04:40:52;;;;;;;10.02;7.05;;;;;;;8.18;84.79;98237.13;4154148;28;20682;-83
2023/04/27 04:42:56;;;;;;;9.57;7.28;;;;;;;8.19;85.04;98236.16;4166840;28;20240;-83
2023/04/27 04:44:59;;;;;;;8.27;7.45;;;;;;;8.19;84.32;98234.41;4167265;28;20202;-83
2023/04/27 04:47:03;;;;;;;8.38;7.45;;;;;;;8.20;83.22;98233.47;4178640;28;20252;-83
2023/04/27 04:49:06;;;;;;;10.52;7.82;;;;;;;8.22;83.27;98234.22;4161693;28;20206;-83
2023/04/27 04:51:09;;;;;;;10.05;7.78;;;;;;;8.25;83.64;98228.84;4171354;28;20209;-84
2023/04/27 04:53:12;;;;;;;9.27;6.97;;;;;;;8.26;83.58;98237.50;4154878;28;20218;-83
2023/04/27 04:55:16;;;;;;;9.43;8.25;;;;;;;8.24;81.55;98231.53;4158061;28;20199;-83
2023/04/27 04:57:21;;;;;;;7.88;7.05;;;;;;;8.25;82.58;98238.41;4150885;28;20780;-83
2023/04/27 04:59:25;;;;;;;10.67;7.20;;;;;;;8.25;83.47;98233.22;4173052;28;20260;-83
2023/04/27 05:01:28;;;;;;;9.55;7.30;;;;;;;8.29;82.80;98234.72;4166125;28;20636;-83
2023/04/27 05:03:31;;;;;;;9.57;7.55;;;;;;;8.32;83.35;98245.78;4168722;28;20272;-83
2023/04/27 05:05:35;;;;;;;8.57;7.60;;;;;;;8.37;83.37;98248.94;4174214;28;20720;-83
2023/04/27 05:07:38;;;;;;;8.05;6.97;;;;;;;8.40;82.44;98251.38;4174171;28;20233;-83
2023/04/27 05:09:41;;;;;;;9.65;7.47;;;;;;;8.42;83.18;98252.13;4169238;28;20210;-83
2023/04/27 05:11:44;;;;;;;9.67;7.33;;;;;;;8.41;82.04;98252.22;4160449;28;20542;-83
2023/04/27 05:13:47;;;;;;;8.73;7.83;;;;;;;8.42;82.50;98248.69;4168816;28;21109;-83
2023/04/27 05:15:52;;;;;;;10.87;7.50;;;;;;;8.41;83.19;98253.06;4168908;28;20631;-83
2023/04/27 05:17:55;;;;;;;14.30;7.88;;;;;;;8.45;83.96;98252.78;4167312;28;20647;-83
2023/04/27 05:19:58;;;;;;;7.53;6.73;;;;;;;8.47;83.28;98252.69;4154304;28;20246;-82
2023/04/27 05:22:01;;;;;;;8.93;7.73;;;;;;;8.50;82.72;98244.72;4153565;28;20637;-84
2023/04/27 05:24:05;;;;;;;10.03;7.77;;;;;;;8.52;83.40;98248.06;4158282;28;21066;-84
2023/04/27 05:26:12;;;;;;;9.85;7.75;;;;;;;8.61;85.05;98252.75;4173241;28;20628;-83
2023/04/27 05:28:15;;;;;;;12.90;7.93;;;;;;;8.66;85.36;98250.69;4169545;28;20265;-84
2023/04/27 05:30:18;;;;;;;9.05;7.53;;;;;;;8.66;84.11;98254.16;4168895;28;21259;-83
2023/04/27 05:32:23;;;;;;;10.03;7.97;;;;;;;8.71;84.00;98256.47;4152386;28;20254;-83
2023/04/27 05:34:26;;;;;;;11.77;8.20;;;;;;;8.75;85.21;98250.16;4171012;28;20660;-84
2023/04/27 05:36:29;;;;;;;10.20;7.50;;;;;;;8.79;84.90;98254.28;4152964;28;20673;-83
2023/04/27 05:38:34;;;;;;;10.32;6.68;;;;;;;8.83;84.23;98258.38;4169253;28;20633;-84
2023/04/27 05:40:38;;;;;;;7.97;6.80;;;;;;;8.86;84.52;98253.00;4169227;28;20218;-84
2023/04/27 05:42:41;;;;;;;10.45;7.65;;;;;;;8.91;84.27;98254.38;4169945;28;20246;-84
2023/04/27 05:44:44;;;;;;;8.57;7.33;;;;;;;8.94;84.50;98262.00;4168535;28;20199;-84
2023/04/27 05:46:47;;;;;;;7.03;6.33;;;;;;;8.96;83.65;98262.75;4168205;28;21664;-82
2023/04/27 05:48:51;;;;;;;10.77;7.33;;;;;;;8.99;83.85;98266.00;4168450;28;21183;-82
2023/04/27 05:51:00;;;;;;;10.50;7.57;;;;;;;9.03;82.97;98271.84;4154449;28;20649;-81
2023/04/27 05:53:04;;;;;;;10.83;8.23;;;;;;;9.04;83.15;98270.94;4168417;28;20674;-81
2023/04/27 05:55:08;;;;;;;9.20;7.43;;;;;;;9.07;83.63;98271.59;4166642;28;20756;-81
2023/04/27 05:57:11;;;;;;;10.23;7.77;;;;;;;9.13;83.13;98279.03;4169541;28;21750;-81
2023/04/27 05:59:14;;;;;;;11.57;7.63;;;;;;;9.19;83.84;98270.03;4168785;28;20632;-84
2023/04/27 06:01:18;;;;;;;10.40;8.00;;;;;;;9.23;83.09;98279.31;4160676;28;20770;-84
2023/04/27 06:03:21;;;;;;;11.70;9.30;;;;;;;9.18;83.24;98282.19;4158962;28;21049;-84
2023/04/27 06:05:25;;;;;;;9.07;8.17;;;;;;;9.23;83.50;98281.91;4188394;28;20774;-84
2023/04/27 06:07:29;;;;;;;10.47;8.50;;;;;;;9.29;83.47;98285.00;4176041;28;20989;-82
2023/04/27 06:09:32;;;;;;;12.00;8.60;;;;;;;9.34;82.85;98288.16;4171169;28;21274;-82
2023/04/27 06:11:36;;;;;;;14.10;8.03;;;;;;;9.41;84.18;98297.25;4163688;28;20676;-82
2023/04/27 06:13:39;;;;;;;10.47;8.90;;;;;;;9.46;82.88;98295.22;4165864;28;20691;-82
2023/04/27 06:15:42;;;;;;;12.90;8.70;;;;;;;9.50;83.70;98297.53;4172334;28;20783;-83
2023/04/27 06:17:46;;;;;;;10.20;9.20;;;;;;;9.59;83.38;98303.94;4142322;28;20671;-83
2023/04/27 06:19:49;;;;;;;10.67;9.57;;;;;;;9.67;83.65;98307.75;4167872;28;20620;-82
2023/04/27 06:21:54;;;;;;;11.23;9.65;;;;;;;9.72;83.10;98302.28;4168020;28;20628;-83
2023/04/27 06:23:57;;;;;;;16.13;10.85;;;;;;;9.79;82.03;98313.97;4165746;28;20207;-82
2023/04/27 06:26:00;;;;;;;11.27;10.10;;;;;;;9.87;82.66;98309.97;4178995;28;20226;-82
2023/04/27 06:28:04;;;;;;;13.07;9.57;;;;;;;9.96;82.14;98306.84;4169290;28;20651;-84
2023/04/27 06:30:09;;;;;;;11.15;9.80;;;;;;;10.01;82.14;98312.59;4172475;28;20632;-84
2023/04/27 06:32:12;;;;;;;10.93;9.40;;;;;;;10.08;81.54;98311.28;4171775;28;20233;-82
2023/04/27 06:34:15;;;;;;;12.43;10.57;;;;;;;10.15;82.51;98310.78;4169296;28;20631;-82
2023/04/27 06:36:18;;;;;;;19.47;13.93;;;;;;;10.27;82.42;98310.03;4168125;28;20714;-82
2023/04/27 06:38:22;;;;;;;15.40;11.10;;;;;;;10.36;82.44;98310.25;4169332;28;20629;-82
2023/04/27 06:40:25;;;;;;;15.90;10.10;;;;;;;10.41;81.18;98307.38;4172236;28;20649;-82
2023/04/27 06:42:29;;;;;;;13.37;9.37;;;;;;;10.47;80.29;98306.97;4171859;28;20623;-82
2023/04/27 06:44:32;;;;;;;12.30;9.70;;;;;;;10.56;79.74;98301.16;4179157;28;21235;-82
2023/04/27 06:46:35;;;;;;;11.82;9.70;;;;;;;10.66;79.50;98303.06;4171113;28;20633;-82
2023/04/27 06:48:39;;;;;;;14.07;9.73;;;;;;;10.75;79.21;98306.84;4175493;28;20216;-82
2023/04/27 06:50:42;;;;;;;11.73;10.53;;;;;;;10.84;79.37;98312.31;4173814;28;20624;-82
2023/04/27 06:52:45;;;;;;;11.03;9.80;;;;;;;10.95;79.89;98315.03;4155069;28;21328;-82
2023/04/27 06:54:49;;;;;;;12.00;10.20;;;;;;;11.06;80.33;98320.38;4171079;28;20655;-82
2023/04/27 06:56:53;;;;;;;10.87;9.10;;;;;;;11.16;78.94;98324.88;4172048;28;20637;-82
2023/04/27 06:58:56;;;;;;;14.37;10.20;;;;;;;11.25;79.44;98323.44;4172769;28;20694;-80
2023/04/27 07:01:00;;;;;;;13.03;11.13;;;;;;;11.33;78.29;98327.19;4171015;28;20641;-80
2023/04/27 07:03:03;;;;;;;11.37;10.17;;;;;;;11.45;80.68;98321.13;4157689;28;20645;-80
2023/04/27 07:05:07;;;;;;;14.20;10.67;;;;;;;11.60;81.50;98323.56;4170813;28;20745;-80
2023/04/27 07:07:10;;;;;;;14.07;10.80;;;;;;;11.73;81.60;98332.25;4171624;28;20633;-80
2023/04/27 07:09:13;;;;;;;14.67;10.97;;;;;;;11.85;81.72;98334.84;4172295;28;20731;-80
2023/04/27 07:11:31;;;;;;;15.60;11.17;;;;;;;11.89;78.93;98338.91;4171436;28;21048;-80
2023/04/27 07:13:34;;;;;;;12.90;10.93;;;;;;;11.92;79.83;98341.31;4170347;28;20734;-80
2023/04/27 07:15:37;;;;;;;17.40;11.67;;;;;;;12.04;79.85;98337.84;4175743;28;20676;-81
2023/04/27 07:17:40;;;;;;;12.40;10.90;;;;;;;12.14;77.93;98332.81;4168039;28;20641;-80
2023/04/27 07:19:43;;;;;;;18.00;10.90;;;;;;;12.25;78.62;98345.00;4157833;28;21007;-81
2023/04/27 07:21:50;;;;;;;12.27;10.23;;;;;;;12.34;77.36;98348.72;4164988;28;20637;-80
2023/04/27 07:23:53;;;;;;;14.90;11.10;;;;;;;12.43;79.22;98346.31;4155728;28;20652;-81
2023/04/27 07:25:58;;;;;;;13.83;10.53;;;;;;;12.56;76.78;98341.84;4166306;28;20730;-80
2023/04/27 07:28:03;;;;;;;12.97;10.80;;;;;;;12.60;75.01;98343.31;4168974;28;21239;-81
2023/04/27 07:30:08;;;;;;;12.60;9.97;;;;;;;12.58;76.95;98342.56;4170384;28;20674;-80
2023/04/27 07:32:11;;;;;;;12.30;10.27;;;;;;;12.70;77.71;98352.16;4172091;28;20613;-80
2023/04/27 07:34:14;;;;;;;13.75;10.50;;;;;;;12.80;73.70;98340.09;4165546;28;20753;-80
2023/04/27 07:36:18;;;;;;;10.10;9.10;;;;;;;12.88;72.56;98349.06;4139942;28;20259;-80
2023/04/27 07:38:22;;;;;;;13.00;9.00;;;;;;;12.98;73.44;98346.63;4163338;28;20986;-80
2023/04/27 07:40:25;;;;;;;10.70;9.33;;;;;;;13.08;73.53;98340.59;4161771;28;20631;-79
2023/04/27 07:42:28;;;;;;;9.47;8.50;;;;;;;13.19;71.29;98343.25;4156458;28;20634;-80
2023/04/27 07:44:33;;;;;;;10.77;8.93;;;;;;;13.22;71.18;98343.84;4171477;28;20692;-80
2023/04/27 07:46:37;;;;;;;10.20;9.23;;;;;;;13.28;70.68;98342.56;4154002;28;20630;-80
2023/04/27 07:48:41;;;;;;;10.77;9.50;;;;;;;13.34;71.08;98339.47;4171251;28;20643;-80
2023/04/27 07:50:44;;;;;;;10.25;9.15;;;;;;;13.53;71.34;98337.13;4159284;28;21092;-80
2023/04/27 07:52:48;;;;;;;10.50;8.43;;;;;;;13.64;69.27;98331.91;4174431;28;20206;-80
2023/04/27 07:54:51;;;;;;;12.03;7.30;;;;;;;13.72;68.85;98333.81;4170187;28;20642;-80
2023/04/27 07:56:54;;;;;;;8.20;6.80;;;;;;;13.85;69.68;98328.47;4167782;28;20661;-80
2023/04/27 07:58:57;;;;;;;9.00;7.40;;;;;;;14.02;69.04;98336.69;4182151;28;20635;-80
2023/04/27 08:01:02;;;;;;;7.67;6.67;;;;;;;14.23;69.12;98335.84;4169141;28;21027;-80
2023/04/27 08:03:06;;;;;;;7.43;6.30;;;;;;;14.43;68.99;98342.97;4169775;28;20648;-80
2023/04/27 08:05:10;;;;;;;8.80;6.27;;;;;;;14.61;67.98;98349.38;4165692;28;20708;-80
2023/04/27 08:07:15;;;;;;;8.73;6.70;;;;;;;14.78;67.58;98351.50;4159132;28;20642;-80
2023/04/27 08:09:20;;;;;;;7.17;6.23;;;;;;;14.91;68.31;98339.84;4170456;28;21053;-80
2023/04/27 08:11:23;;;;;;;10.13;6.93;;;;;;;15.12;68.83;98343.38;4159764;28;21044;-80
2023/04/27 08:13:26;;;;;;;6.97;5.97;;;;;;;15.31;68.82;98348.81;4166691;28;20736;-80
2023/04/27 08:15:29;;;;;;;7.60;5.97;;;;;;;15.68;68.53;98354.31;4164884;28;20647;-80
2023/04/27 08:17:35;;;;;;;8.73;6.63;;;;;;;15.91;65.24;98363.72;4170747;28;20665;-80
2023/04/27 08:19:39;;;;;;;8.93;6.07;;;;;;;16.02;66.96;98353.09;4169805;28;20647;-80
2023/04/27 08:21:42;;;;;;;9.20;5.73;;;;;;;16.46;64.81;98361.47;4170403;28;20642;-80
2023/04/27 08:23:45;;;;;;;6.77;5.87;;;;;;;17.00;68.32;98360.06;4167608;28;21211;-80
2023/04/27 08:25:48;;;;;;;10.97;5.93;;;;;;;17.57;65.33;98366.19;4170454;28;20630;-80
2023/04/27 08:27:51;;;;;;;5.83;5.20;;;;;;;17.88;63.17;98368.50;4171857;28;20663;-80
2023/04/27 08:29:54;;;;;;;6.40;4.97;;;;;;;18.13;60.85;98362.59;4166831;28;20718;-81
2023/04/27 08:31:59;;;;;;;5.60;5.00;;;;;;;18.37;59.34;98352.38;4165344;28;20651;-82
2023/04/27 08:34:04;;;;;;;9.50;5.27;;;;;;;18.47;58.81;98352.16;4167006;28;21179;-82
2023/04/27 08:36:07;;;;;;;10.10;6.13;;;;;;;18.57;58.58;98345.03;4170931;28;20673;-82
2023/04/27 08:38:10;;;;;;;6.40;4.97;;;;;;;18.73;57.25;98339.09;4169127;28;21193;-82
2023/04/27 08:40:14;;;;;;;7.38;4.80;;;;;;;18.79;55.20;98346.41;4171692;28;20756;-82
2023/04/27 08:42:17;;;;;;;7.37;5.20;;;;;;;18.88;57.83;98341.06;4158230;28;20647;-82
2023/04/27 08:44:20;;;;;;;8.87;5.27;;;;;;;18.94;57.59;98335.19;4155616;28;20821;-80
2023/04/27 08:46:25;;;;;;;5.80;4.70;;;;;;;18.97;58.24;98335.72;4168365;28;20744;-80
2023/04/27 08:48:29;;;;;;;7.53;4.80;;;;;;;19.21;61.21;98335.16;4170827;28;20639;-80
2023/04/27 08:50:36;;;;;;;7.63;4.90;;;;;;;19.31;60.09;98333.25;4162572;28;20635;-80
2023/04/27 08:52:39;;;;;;;8.03;5.30;;;;;;;19.34;59.83;98331.13;4171520;28;20684;-80
2023/04/27 08:54:43;;;;;;;5.90;4.80;;;;;;;19.29;56.51;98320.19;4159372;28;20679;-80
2023/04/27 08:56:46;;;;;;;7.27;5.13;;;;;;;19.20;56.72;98328.19;4166749;28;20662;-81
2023/04/27 08:58:49;;;;;;;8.70;5.00;;;;;;;19.31;58.53;98326.16;4174931;28;20643;-80
2023/04/27 09:00:53;;;;;;;5.73;4.87;;;;;;;19.32;54.82;98327.81;4154536;28;20624;-80
2023/04/27 09:02:56;;;;;;;6.83;5.00;;;;;;;19.48;55.87;98331.44;4168517;28;20632;-80
2023/04/27 09:04:59;;;;;;;5.87;4.70;;;;;;;19.69;58.17;98336.38;4167445;28;21270;-80
2023/04/27 09:07:11;;;;;;;8.10;5.00;;;;;;;19.74;54.75;98334.06;4155386;28;20640;-80
2023/04/27 09:09:22;;;;;;;6.43;4.77;;;;;;;19.78;56.53;98324.84;4156929;28;20624;-80
2023/04/27 09:11:30;;;;;;;6.47;5.17;;;;;;;19.89;53.50;98322.78;4172835;28;20638;-80
2023/04/27 09:13:37;;;;;;;6.30;4.90;;;;;;;19.98;53.74;98333.28;4172544;28;20637;-80
2023/04/27 09:15:44;;;;;;;8.70;4.87;;;;;;;20.12;58.15;98329.22;4171325;28;21008;-80
2023/04/27 09:17:55;;;;;;;9.17;5.00;;;;;;;20.16;55.49;98333.22;4169376;28;20662;-80
2023/04/27 09:20:07;;;;;;;7.07;5.27;;;;;;;20.12;54.53;98331.88;4157909;28;20636;-80
2023/04/27 09:22:13;;;;;;;6.50;4.60;;;;;;;20.14;55.17;98329.91;4155697;28;21091;-80
2023/04/27 09:24:16;;;;;;;7.20;5.20;;;;;;;20.01;54.94;98332.97;4172934;28;20659;-81
2023/04/27 09:26:21;;;;;;;6.63;4.83;;;;;;;19.88;51.70;98329.09;4162020;28;21019;-80
2023/04/27 09:28:26;;;;;;;8.20;5.00;;;;;;;19.87;54.17;98330.91;4168755;28;20652;-80
2023/04/27 09:30:30;;;;;;;7.03;4.50;;;;;;;19.92;53.13;98331.28;4171278;28;20716;-80
2023/04/27 09:32:33;;;;;;;5.60;4.10;;;;;;;19.93;54.94;98324.16;4170987;28;20739;-80
2023/04/27 09:34:39;;;;;;;7.63;5.80;;;;;;;19.98;52.34;98338.59;4166028;28;20637;-80
2023/04/27 09:36:43;;;;;;;5.67;4.93;;;;;;;19.96;52.23;98337.06;4166896;28;21030;-80
2023/04/27 09:38:47;;;;;;;5.83;3.50;;;;;;;19.86;48.89;98328.44;4167088;28;20639;-80
2023/04/27 09:40:52;;;;;;;5.13;4.13;;;;;;;19.72;51.77;98334.22;4162359;28;20635;-80
2023/04/27 09:42:56;;;;;;;7.37;4.70;;;;;;;19.61;51.00;98325.72;4161260;28;20790;-80
2023/04/27 09:44:59;;;;;;;9.10;4.13;;;;;;;19.70;53.01;98328.28;4168993;28;21238;-80
2023/04/27 09:47:03;;;;;;;6.00;4.03;;;;;;;19.80;52.42;98331.66;4164647;28;20632;-80